Esler Regional Airport Alexandria US
ICAO: KESF
IATA: ESF
Category: Medium
Scheduled Services: No

Elevation: 112 ft
TransAlt. 18000 ft.

Airport Communications:
POLK APP/DEP:132.05
CTAF/UNICOM:122.8
ARNG OPS:141.45
DE RIDDER RDO:122.55

KESF Zoom In..

If you have problems with the map follow the link
https://www.worldairports.se/pages/airport.php?
ICAO=KESF

Runways:

(A) RW 09 length 5999 ft width 150 ft
---- / hdg 90

(B) RW 14 length 5601 ft width 150 ft
---- / hdg 144

(C) RW 27 length 5999 ft width 150 ft
ILS 111.50 / hdg 270

(D) RW 32 length 5601 ft width 150 ft
---- / hdg 324

Location; KESF
Day. 17 / Time. 02.53 Zulu
* Altimeter: 30.19
* Temperature: 05° c. 41°f.
* Wind from: 000° Speed 00 kn.
Dewpoint: 05° c.
Visibility: 6 Statute Miles.
Clouds: Clear (automated report).
Conditions: Mist.

KESF 170253Z AUTO 00000KT 6SM BR CLR 05/05 A3019 RMK AO2 SLP222 T00500050 53012


Wind - Calm.

 
 
jpsmedia.com for Web Design worldairports.se 2018   terms of use